sensor_id;sensor_type;location;lat;lon;timestamp;temperature;humidity
49379;DHT22;35254;47.990;-1.608;2022-09-17T00:01:57;25.00;47.30
49379;DHT22;35254;47.990;-1.608;2022-09-17T00:04:23;24.90;47.20
49379;DHT22;35254;47.990;-1.608;2022-09-17T00:06:48;25.00;47.20
49379;DHT22;35254;47.990;-1.608;2022-09-17T00:09:15;25.00;47.20
49379;DHT22;35254;47.990;-1.608;2022-09-17T00:11:42;25.00;47.20
49379;DHT22;35254;47.990;-1.608;2022-09-17T00:14:13;24.90;47.20
49379;DHT22;35254;47.990;-1.608;2022-09-17T00:16:42;24.90;47.10
49379;DHT22;35254;47.990;-1.608;2022-09-17T00:19:15;25.00;47.20
49379;DHT22;35254;47.990;-1.608;2022-09-17T00:21:42;24.90;47.10
49379;DHT22;35254;47.990;-1.608;2022-09-17T00:24:09;24.90;47.10
49379;DHT22;35254;47.990;-1.608;2022-09-17T00:26:35;24.90;47.10
49379;DHT22;35254;47.990;-1.608;2022-09-17T00:29:02;24.90;47.10
49379;DHT22;35254;47.990;-1.608;2022-09-17T00:31:29;24.90;47.10
49379;DHT22;35254;47.990;-1.608;2022-09-17T00:33:55;25.00;47.10
49379;DHT22;35254;47.990;-1.608;2022-09-17T00:36:22;24.90;47.10
49379;DHT22;35254;47.990;-1.608;2022-09-17T00:38:52;24.90;47.00
49379;DHT22;35254;47.990;-1.608;2022-09-17T00:41:18;24.90;47.00
49379;DHT22;35254;47.990;-1.608;2022-09-17T00:43:47;24.90;46.90
49379;DHT22;35254;47.990;-1.608;2022-09-17T00:48:45;24.90;46.90
49379;DHT22;35254;47.990;-1.608;2022-09-17T00:51:14;24.90;46.90
49379;DHT22;35254;47.990;-1.608;2022-09-17T00:53:42;24.90;47.00
49379;DHT22;35254;47.990;-1.608;2022-09-17T00:56:21;24.80;46.90
49379;DHT22;35254;47.990;-1.608;2022-09-17T00:58:49;24.80;46.80
49379;DHT22;35254;47.990;-1.608;2022-09-17T01:01:16;24.80;46.80
49379;DHT22;35254;47.990;-1.608;2022-09-17T01:03:42;24.80;46.90
49379;DHT22;35254;47.990;-1.608;2022-09-17T01:06:23;24.80;46.80
49379;DHT22;35254;47.990;-1.608;2022-09-17T01:36:38;24.70;46.60
49379;DHT22;35254;47.990;-1.608;2022-09-17T01:39:11;24.70;46.50
49379;DHT22;35254;47.990;-1.608;2022-09-17T01:41:42;24.70;46.60
49379;DHT22;35254;47.990;-1.608;2022-09-17T01:44:13;24.70;46.60
49379;DHT22;35254;47.990;-1.608;2022-09-17T01:46:50;24.70;46.60
49379;DHT22;35254;47.990;-1.608;2022-09-17T01:49:20;24.70;46.50
49379;DHT22;35254;47.990;-1.608;2022-09-17T01:51:48;24.70;46.50
49379;DHT22;35254;47.990;-1.608;2022-09-17T01:54:31;24.70;46.50
49379;DHT22;35254;47.990;-1.608;2022-09-17T01:57:08;24.70;46.40
49379;DHT22;35254;47.990;-1.608;2022-09-17T02:05:33;24.70;46.40
49379;DHT22;35254;47.990;-1.608;2022-09-17T02:08:24;24.70;46.30
49379;DHT22;35254;47.990;-1.608;2022-09-17T02:11:06;24.70;46.20
49379;DHT22;35254;47.990;-1.608;2022-09-17T02:16:31;24.70;46.20
49379;DHT22;35254;47.990;-1.608;2022-09-17T02:24:24;24.60;46.00
49379;DHT22;35254;47.990;-1.608;2022-09-17T02:27:02;24.60;46.10
49379;DHT22;35254;47.990;-1.608;2022-09-17T02:29:48;24.70;46.00
49379;DHT22;35254;47.990;-1.608;2022-09-17T02:32:14;24.70;45.90
49379;DHT22;35254;47.990;-1.608;2022-09-17T02:34:39;24.60;46.10
49379;DHT22;35254;47.990;-1.608;2022-09-17T02:37:06;24.60;46.00
49379;DHT22;35254;47.990;-1.608;2022-09-17T02:39:32;24.60;46.00
49379;DHT22;35254;47.990;-1.608;2022-09-17T02:45:17;24.60;45.80
49379;DHT22;35254;47.990;-1.608;2022-09-17T02:50:51;24.60;45.90
49379;DHT22;35254;47.990;-1.608;2022-09-17T02:59:00;24.60;45.70
49379;DHT22;35254;47.990;-1.608;2022-09-17T03:01:42;24.50;45.80
49379;DHT22;35254;47.990;-1.608;2022-09-17T03:04:11;24.50;45.70
49379;DHT22;35254;47.990;-1.608;2022-09-17T03:06:39;24.50;45.70
49379;DHT22;35254;47.990;-1.608;2022-09-17T03:09:05;24.50;45.70
49379;DHT22;35254;47.990;-1.608;2022-09-17T03:11:30;24.50;45.70
49379;DHT22;35254;47.990;-1.608;2022-09-17T03:13:56;24.50;45.60
49379;DHT22;35254;47.990;-1.608;2022-09-17T03:16:23;24.50;45.60
49379;DHT22;35254;47.990;-1.608;2022-09-17T03:18:48;24.40;45.60
49379;DHT22;35254;47.990;-1.608;2022-09-17T03:21:15;24.50;45.50
49379;DHT22;35254;47.990;-1.608;2022-09-17T03:23:41;24.50;45.60
49379;DHT22;35254;47.990;-1.608;2022-09-17T03:26:06;24.40;45.50
49379;DHT22;35254;47.990;-1.608;2022-09-17T03:28:32;24.40;45.50
49379;DHT22;35254;47.990;-1.608;2022-09-17T03:30:58;24.40;45.50
49379;DHT22;35254;47.990;-1.608;2022-09-17T03:33:23;24.50;45.50
49379;DHT22;35254;47.990;-1.608;2022-09-17T03:35:49;24.50;45.40
49379;DHT22;35254;47.990;-1.608;2022-09-17T03:38:15;24.40;45.40
49379;DHT22;35254;47.990;-1.608;2022-09-17T03:40:40;24.40;45.40
49379;DHT22;35254;47.990;-1.608;2022-09-17T03:43:07;24.40;45.40
49379;DHT22;35254;47.990;-1.608;2022-09-17T03:45:32;24.40;45.30
49379;DHT22;35254;47.990;-1.608;2022-09-17T03:47:58;24.40;45.30
49379;DHT22;35254;47.990;-1.608;2022-09-17T03:50:24;24.40;45.30
49379;DHT22;35254;47.990;-1.608;2022-09-17T03:52:50;24.40;45.30
49379;DHT22;35254;47.990;-1.608;2022-09-17T03:55:15;24.40;45.30
49379;DHT22;35254;47.990;-1.608;2022-09-17T03:57:42;24.40;45.20
49379;DHT22;35254;47.990;-1.608;2022-09-17T04:00:08;24.40;45.20
49379;DHT22;35254;47.990;-1.608;2022-09-17T04:02:34;24.30;45.20
49379;DHT22;35254;47.990;-1.608;2022-09-17T04:05:00;24.30;45.20
49379;DHT22;35254;47.990;-1.608;2022-09-17T04:07:26;24.30;45.20
49379;DHT22;35254;47.990;-1.608;2022-09-17T04:09:52;24.30;45.20
49379;DHT22;35254;47.990;-1.608;2022-09-17T04:12:17;24.30;45.10
49379;DHT22;35254;47.990;-1.608;2022-09-17T04:14:43;24.30;45.10
49379;DHT22;35254;47.990;-1.608;2022-09-17T04:17:08;24.30;45.00
49379;DHT22;35254;47.990;-1.608;2022-09-17T04:19:34;24.30;45.10
49379;DHT22;35254;47.990;-1.608;2022-09-17T04:22:00;24.30;45.20
49379;DHT22;35254;47.990;-1.608;2022-09-17T04:24:25;24.30;45.30
49379;DHT22;35254;47.990;-1.608;2022-09-17T04:26:51;24.30;45.30
49379;DHT22;35254;47.990;-1.608;2022-09-17T04:29:16;24.30;45.40
49379;DHT22;35254;47.990;-1.608;2022-09-17T04:31:42;24.30;45.50
49379;DHT22;35254;47.990;-1.608;2022-09-17T04:34:08;24.40;45.50
49379;DHT22;35254;47.990;-1.608;2022-09-17T04:36:33;24.30;45.60
49379;DHT22;35254;47.990;-1.608;2022-09-17T04:38:59;24.40;45.60
49379;DHT22;35254;47.990;-1.608;2022-09-17T04:41:25;24.40;45.70
49379;DHT22;35254;47.990;-1.608;2022-09-17T04:43:50;24.30;45.70
49379;DHT22;35254;47.990;-1.608;2022-09-17T04:46:16;24.30;45.80
49379;DHT22;35254;47.990;-1.608;2022-09-17T04:48:42;24.30;45.80
49379;DHT22;35254;47.990;-1.608;2022-09-17T04:51:08;24.20;45.80
49379;DHT22;35254;47.990;-1.608;2022-09-17T04:53:33;24.20;45.80
49379;DHT22;35254;47.990;-1.608;2022-09-17T04:55:59;24.20;45.90
49379;DHT22;35254;47.990;-1.608;2022-09-17T04:58:25;24.20;45.90
49379;DHT22;35254;47.990;-1.608;2022-09-17T05:00:50;24.20;46.00
49379;DHT22;35254;47.990;-1.608;2022-09-17T05:03:16;24.20;46.00
49379;DHT22;35254;47.990;-1.608;2022-09-17T05:05:42;24.20;46.00
49379;DHT22;35254;47.990;-1.608;2022-09-17T05:08:07;24.20;46.00
49379;DHT22;35254;47.990;-1.608;2022-09-17T05:10:33;24.20;46.10
49379;DHT22;35254;47.990;-1.608;2022-09-17T05:12:59;24.20;46.10
49379;DHT22;35254;47.990;-1.608;2022-09-17T05:15:25;24.10;46.10
49379;DHT22;35254;47.990;-1.608;2022-09-17T05:17:52;24.20;46.10
49379;DHT22;35254;47.990;-1.608;2022-09-17T05:20:18;24.10;46.20
49379;DHT22;35254;47.990;-1.608;2022-09-17T05:22:46;24.10;46.20
49379;DHT22;35254;47.990;-1.608;2022-09-17T05:25:14;24.10;46.20
49379;DHT22;35254;47.990;-1.608;2022-09-17T05:27:41;24.10;46.20
49379;DHT22;35254;47.990;-1.608;2022-09-17T05:30:07;24.00;46.20
49379;DHT22;35254;47.990;-1.608;2022-09-17T05:32:35;24.00;46.30
49379;DHT22;35254;47.990;-1.608;2022-09-17T05:35:01;24.00;46.20
49379;DHT22;35254;47.990;-1.608;2022-09-17T05:37:28;24.00;46.30
49379;DHT22;35254;47.990;-1.608;2022-09-17T05:39:53;24.00;46.30
49379;DHT22;35254;47.990;-1.608;2022-09-17T05:42:19;24.00;46.30
49379;DHT22;35254;47.990;-1.608;2022-09-17T05:44:45;23.90;46.30
49379;DHT22;35254;47.990;-1.608;2022-09-17T05:47:10;23.90;46.30
49379;DHT22;35254;47.990;-1.608;2022-09-17T05:49:36;23.90;46.40
49379;DHT22;35254;47.990;-1.608;2022-09-17T05:52:01;23.90;46.30
49379;DHT22;35254;47.990;-1.608;2022-09-17T05:54:28;23.90;46.40
49379;DHT22;35254;47.990;-1.608;2022-09-17T05:56:54;23.90;46.40
49379;DHT22;35254;47.990;-1.608;2022-09-17T05:59:19;23.90;46.40
49379;DHT22;35254;47.990;-1.608;2022-09-17T06:01:45;23.90;46.30
49379;DHT22;35254;47.990;-1.608;2022-09-17T06:04:11;23.80;46.30
49379;DHT22;35254;47.990;-1.608;2022-09-17T06:06:37;23.80;46.40
49379;DHT22;35254;47.990;-1.608;2022-09-17T06:09:07;23.80;46.40
49379;DHT22;35254;47.990;-1.608;2022-09-17T06:11:33;23.80;46.40
49379;DHT22;35254;47.990;-1.608;2022-09-17T06:13:59;23.80;46.40
49379;DHT22;35254;47.990;-1.608;2022-09-17T06:16:25;23.80;46.40
49379;DHT22;35254;47.990;-1.608;2022-09-17T06:18:50;23.80;46.40
49379;DHT22;35254;47.990;-1.608;2022-09-17T06:21:18;23.70;46.40
49379;DHT22;35254;47.990;-1.608;2022-09-17T06:23:44;23.80;46.40
49379;DHT22;35254;47.990;-1.608;2022-09-17T06:26:10;23.70;46.40
49379;DHT22;35254;47.990;-1.608;2022-09-17T06:28:36;23.80;46.40
49379;DHT22;35254;47.990;-1.608;2022-09-17T06:31:03;23.80;46.40
49379;DHT22;35254;47.990;-1.608;2022-09-17T06:33:30;23.80;46.40
49379;DHT22;35254;47.990;-1.608;2022-09-17T06:35:58;23.80;46.40
49379;DHT22;35254;47.990;-1.608;2022-09-17T06:38:28;23.80;46.30
49379;DHT22;35254;47.990;-1.608;2022-09-17T06:40:55;23.80;46.30
49379;DHT22;35254;47.990;-1.608;2022-09-17T06:43:21;23.80;46.30
49379;DHT22;35254;47.990;-1.608;2022-09-17T06:45:53;23.80;46.30
49379;DHT22;35254;47.990;-1.608;2022-09-17T06:48:20;23.90;46.20
49379;DHT22;35254;47.990;-1.608;2022-09-17T06:50:46;23.80;46.20
49379;DHT22;35254;47.990;-1.608;2022-09-17T06:53:11;23.80;46.20
49379;DHT22;35254;47.990;-1.608;2022-09-17T06:55:37;23.90;46.20
49379;DHT22;35254;47.990;-1.608;2022-09-17T06:58:03;23.90;46.20
49379;DHT22;35254;47.990;-1.608;2022-09-17T07:00:28;23.90;46.20
49379;DHT22;35254;47.990;-1.608;2022-09-17T07:02:58;23.90;46.10
49379;DHT22;35254;47.990;-1.608;2022-09-17T07:05:26;23.90;46.10
49379;DHT22;35254;47.990;-1.608;2022-09-17T07:07:52;23.90;46.20
49379;DHT22;35254;47.990;-1.608;2022-09-17T07:10:19;23.90;46.20
49379;DHT22;35254;47.990;-1.608;2022-09-17T07:12:45;24.00;46.20
49379;DHT22;35254;47.990;-1.608;2022-09-17T07:15:11;24.00;46.20
49379;DHT22;35254;47.990;-1.608;2022-09-17T07:17:37;24.00;46.30
49379;DHT22;35254;47.990;-1.608;2022-09-17T07:20:05;24.00;46.30
49379;DHT22;35254;47.990;-1.608;2022-09-17T07:22:31;24.00;46.30
49379;DHT22;35254;47.990;-1.608;2022-09-17T07:24:57;24.00;46.30
49379;DHT22;35254;47.990;-1.608;2022-09-17T07:27:23;24.00;46.30
49379;DHT22;35254;47.990;-1.608;2022-09-17T07:29:48;24.00;46.30
49379;DHT22;35254;47.990;-1.608;2022-09-17T07:32:14;23.90;46.40
49379;DHT22;35254;47.990;-1.608;2022-09-17T07:34:39;23.90;46.40
49379;DHT22;35254;47.990;-1.608;2022-09-17T07:37:05;23.90;46.50
49379;DHT22;35254;47.990;-1.608;2022-09-17T07:39:30;23.90;46.50
49379;DHT22;35254;47.990;-1.608;2022-09-17T07:41:56;23.90;46.50
49379;DHT22;35254;47.990;-1.608;2022-09-17T07:44:22;23.90;46.50
49379;DHT22;35254;47.990;-1.608;2022-09-17T07:46:47;23.90;46.60
49379;DHT22;35254;47.990;-1.608;2022-09-17T07:49:13;23.90;46.80
49379;DHT22;35254;47.990;-1.608;2022-09-17T07:51:38;24.00;46.80
49379;DHT22;35254;47.990;-1.608;2022-09-17T07:54:04;23.90;46.70
49379;DHT22;35254;47.990;-1.608;2022-09-17T07:56:31;23.90;46.60
49379;DHT22;35254;47.990;-1.608;2022-09-17T07:58:57;23.90;46.70
49379;DHT22;35254;47.990;-1.608;2022-09-17T08:01:23;23.90;46.80
49379;DHT22;35254;47.990;-1.608;2022-09-17T08:03:50;23.90;46.90
49379;DHT22;35254;47.990;-1.608;2022-09-17T08:06:18;23.90;46.90
49379;DHT22;35254;47.990;-1.608;2022-09-17T08:08:45;23.90;46.90
49379;DHT22;35254;47.990;-1.608;2022-09-17T08:11:19;23.90;46.90
49379;DHT22;35254;47.990;-1.608;2022-09-17T08:13:49;23.90;47.00
49379;DHT22;35254;47.990;-1.608;2022-09-17T08:16:16;23.90;47.00
49379;DHT22;35254;47.990;-1.608;2022-09-17T08:18:43;23.90;47.00
49379;DHT22;35254;47.990;-1.608;2022-09-17T08:21:12;23.90;47.10
49379;DHT22;35254;47.990;-1.608;2022-09-17T08:23:39;23.90;47.10
49379;DHT22;35254;47.990;-1.608;2022-09-17T08:26:06;24.00;47.20
49379;DHT22;35254;47.990;-1.608;2022-09-17T08:28:34;24.00;47.20
49379;DHT22;35254;47.990;-1.608;2022-09-17T08:31:02;24.00;47.30
49379;DHT22;35254;47.990;-1.608;2022-09-17T08:33:31;24.00;47.40
49379;DHT22;35254;47.990;-1.608;2022-09-17T08:35:58;24.10;47.50
49379;DHT22;35254;47.990;-1.608;2022-09-17T08:38:28;24.10;47.50
49379;DHT22;35254;47.990;-1.608;2022-09-17T08:46:45;24.10;47.60
49379;DHT22;35254;47.990;-1.608;2022-09-17T08:49:25;24.10;47.60
49379;DHT22;35254;47.990;-1.608;2022-09-17T08:57:17;24.10;47.70
49379;DHT22;35254;47.990;-1.608;2022-09-17T09:00:14;24.10;47.60
49379;DHT22;35254;47.990;-1.608;2022-09-17T09:05:39;24.10;47.80
49379;DHT22;35254;47.990;-1.608;2022-09-17T09:10:57;24.10;47.70
49379;DHT22;35254;47.990;-1.608;2022-09-17T09:13:30;24.10;47.80
49379;DHT22;35254;47.990;-1.608;2022-09-17T09:16:22;24.10;47.80
49379;DHT22;35254;47.990;-1.608;2022-09-17T09:19:03;24.10;47.80
49379;DHT22;35254;47.990;-1.608;2022-09-17T09:24:41;24.10;47.80
49379;DHT22;35254;47.990;-1.608;2022-09-17T09:27:27;24.10;47.90
49379;DHT22;35254;47.990;-1.608;2022-09-17T09:30:07;24.20;47.90
49379;DHT22;35254;47.990;-1.608;2022-09-17T09:32:57;24.10;47.90
49379;DHT22;35254;47.990;-1.608;2022-09-17T09:35:30;24.20;47.90
49379;DHT22;35254;47.990;-1.608;2022-09-17T09:46:30;24.20;48.00
49379;DHT22;35254;47.990;-1.608;2022-09-17T09:51:53;24.20;48.10
49379;DHT22;35254;47.990;-1.608;2022-09-17T09:57:11;24.20;48.00
49379;DHT22;35254;47.990;-1.608;2022-09-17T09:59:38;24.30;47.90
49379;DHT22;35254;47.990;-1.608;2022-09-17T10:02:06;24.30;48.20
49379;DHT22;35254;47.990;-1.608;2022-09-17T10:04:32;24.30;48.20
49379;DHT22;35254;47.990;-1.608;2022-09-17T10:07:09;24.30;48.10
49379;DHT22;35254;47.990;-1.608;2022-09-17T10:09:38;24.40;47.90
49379;DHT22;35254;47.990;-1.608;2022-09-17T10:14:38;24.40;48.00
49379;DHT22;35254;47.990;-1.608;2022-09-17T10:17:14;24.40;48.00
49379;DHT22;35254;47.990;-1.608;2022-09-17T10:19:42;24.40;47.90
49379;DHT22;35254;47.990;-1.608;2022-09-17T10:22:32;24.40;47.90
49379;DHT22;35254;47.990;-1.608;2022-09-17T10:25:00;24.40;47.60
49379;DHT22;35254;47.990;-1.608;2022-09-17T10:27:27;24.40;47.90
49379;DHT22;35254;47.990;-1.608;2022-09-17T10:30:15;24.40;47.90
49379;DHT22;35254;47.990;-1.608;2022-09-17T10:32:42;24.50;47.60
49379;DHT22;35254;47.990;-1.608;2022-09-17T10:37:49;24.50;47.70
49379;DHT22;35254;47.990;-1.608;2022-09-17T10:42:45;24.50;47.70
49379;DHT22;35254;47.990;-1.608;2022-09-17T10:45:28;24.50;47.80
49379;DHT22;35254;47.990;-1.608;2022-09-17T10:47:55;24.50;47.50
49379;DHT22;35254;47.990;-1.608;2022-09-17T10:50:33;24.60;47.70
49379;DHT22;35254;47.990;-1.608;2022-09-17T10:53:05;24.60;47.60
49379;DHT22;35254;47.990;-1.608;2022-09-17T10:55:37;24.60;47.70
49379;DHT22;35254;47.990;-1.608;2022-09-17T11:00:47;24.60;47.60
49379;DHT22;35254;47.990;-1.608;2022-09-17T11:09:19;24.70;47.40
49379;DHT22;35254;47.990;-1.608;2022-09-17T11:20:06;24.70;47.40
49379;DHT22;35254;47.990;-1.608;2022-09-17T11:25:32;24.70;47.40
49379;DHT22;35254;47.990;-1.608;2022-09-17T11:39:15;24.70;47.40
49379;DHT22;35254;47.990;-1.608;2022-09-17T11:41:45;24.70;47.40
49379;DHT22;35254;47.990;-1.608;2022-09-17T11:47:01;24.70;47.40
49379;DHT22;35254;47.990;-1.608;2022-09-17T11:57:40;24.00;45.30
49379;DHT22;35254;47.990;-1.608;2022-09-17T12:00:19;23.90;45.50
49379;DHT22;35254;47.990;-1.608;2022-09-17T12:03:08;23.90;45.00
49379;DHT22;35254;47.990;-1.608;2022-09-17T12:05:46;23.80;44.60
49379;DHT22;35254;47.990;-1.608;2022-09-17T12:08:32;23.70;44.60
49379;DHT22;35254;47.990;-1.608;2022-09-17T12:13:48;23.70;43.90
49379;DHT22;35254;47.990;-1.608;2022-09-17T12:16:20;23.70;44.10
49379;DHT22;35254;47.990;-1.608;2022-09-17T12:19:01;23.70;44.10
49379;DHT22;35254;47.990;-1.608;2022-09-17T12:22:16;23.70;43.80
49379;DHT22;35254;47.990;-1.608;2022-09-17T12:24:28;23.80;43.90
49379;DHT22;35254;47.990;-1.608;2022-09-17T12:41:13;23.90;42.70
49379;DHT22;35254;47.990;-1.608;2022-09-17T12:44:14;23.90;42.80
49379;DHT22;35254;47.990;-1.608;2022-09-17T12:47:04;23.90;42.50
49379;DHT22;35254;47.990;-1.608;2022-09-17T12:52:29;23.90;42.50
49379;DHT22;35254;47.990;-1.608;2022-09-17T12:55:20;24.00;42.00
49379;DHT22;35254;47.990;-1.608;2022-09-17T13:01:31;23.90;41.70
49379;DHT22;35254;47.990;-1.608;2022-09-17T13:06:55;23.90;41.40
49379;DHT22;35254;47.990;-1.608;2022-09-17T13:09:46;23.90;41.10
49379;DHT22;35254;47.990;-1.608;2022-09-17T13:17:45;24.00;41.00
49379;DHT22;35254;47.990;-1.608;2022-09-17T13:22:49;24.00;40.90
49379;DHT22;35254;47.990;-1.608;2022-09-17T13:25:18;24.00;40.80
49379;DHT22;35254;47.990;-1.608;2022-09-17T13:27:45;24.00;40.70
49379;DHT22;35254;47.990;-1.608;2022-09-17T13:30:13;24.00;40.50
49379;DHT22;35254;47.990;-1.608;2022-09-17T13:37:32;24.00;40.40
49379;DHT22;35254;47.990;-1.608;2022-09-17T13:39:59;24.10;40.40
49379;DHT22;35254;47.990;-1.608;2022-09-17T13:42:29;24.00;40.10
49379;DHT22;35254;47.990;-1.608;2022-09-17T13:45:07;24.10;40.00
49379;DHT22;35254;47.990;-1.608;2022-09-17T13:47:50;24.00;39.70
49379;DHT22;35254;47.990;-1.608;2022-09-17T13:55:46;24.10;39.50
49379;DHT22;35254;47.990;-1.608;2022-09-17T14:01:05;24.10;39.60
49379;DHT22;35254;47.990;-1.608;2022-09-17T14:21:54;24.60;40.40
49379;DHT22;35254;47.990;-1.608;2022-09-17T14:35:22;24.50;40.80
49379;DHT22;35254;47.990;-1.608;2022-09-17T14:37:52;24.50;40.90
49379;DHT22;35254;47.990;-1.608;2022-09-17T14:40:21;24.50;40.30
49379;DHT22;35254;47.990;-1.608;2022-09-17T14:42:51;24.40;40.40
49379;DHT22;35254;47.990;-1.608;2022-09-17T14:45:23;24.20;40.40
49379;DHT22;35254;47.990;-1.608;2022-09-17T14:48:16;24.30;40.80
49379;DHT22;35254;47.990;-1.608;2022-09-17T14:50:41;24.30;40.70
49379;DHT22;35254;47.990;-1.608;2022-09-17T14:53:14;24.30;40.70
49379;DHT22;35254;47.990;-1.608;2022-09-17T14:55:41;24.30;40.80
49379;DHT22;35254;47.990;-1.608;2022-09-17T14:58:36;24.30;40.50
49379;DHT22;35254;47.990;-1.608;2022-09-17T15:01:05;24.20;40.40
49379;DHT22;35254;47.990;-1.608;2022-09-17T15:03:31;24.20;40.70
49379;DHT22;35254;47.990;-1.608;2022-09-17T15:05:56;24.30;40.80
49379;DHT22;35254;47.990;-1.608;2022-09-17T15:08:24;24.30;40.70
49379;DHT22;35254;47.990;-1.608;2022-09-17T15:10:59;24.30;40.40
49379;DHT22;35254;47.990;-1.608;2022-09-17T15:13:34;24.20;39.90
49379;DHT22;35254;47.990;-1.608;2022-09-17T15:16:05;24.10;40.30
49379;DHT22;35254;47.990;-1.608;2022-09-17T15:18:59;24.10;40.30
49379;DHT22;35254;47.990;-1.608;2022-09-17T15:23:58;24.00;39.50
49379;DHT22;35254;47.990;-1.608;2022-09-17T15:26:29;23.80;39.30
49379;DHT22;35254;47.990;-1.608;2022-09-17T15:28:57;23.70;39.30
49379;DHT22;35254;47.990;-1.608;2022-09-17T15:31:23;23.70;39.50
49379;DHT22;35254;47.990;-1.608;2022-09-17T15:33:49;23.80;40.10
49379;DHT22;35254;47.990;-1.608;2022-09-17T15:36:22;23.90;40.20
49379;DHT22;35254;47.990;-1.608;2022-09-17T15:38:48;24.00;39.60
49379;DHT22;35254;47.990;-1.608;2022-09-17T15:43:45;24.00;40.00
49379;DHT22;35254;47.990;-1.608;2022-09-17T15:46:30;24.20;40.20
49379;DHT22;35254;47.990;-1.608;2022-09-17T15:49:23;24.30;40.20
49379;DHT22;35254;47.990;-1.608;2022-09-17T15:51:49;24.30;40.20
49379;DHT22;35254;47.990;-1.608;2022-09-17T15:54:28;24.40;40.40
49379;DHT22;35254;47.990;-1.608;2022-09-17T15:56:58;24.50;40.50
49379;DHT22;35254;47.990;-1.608;2022-09-17T15:59:29;24.50;40.60
49379;DHT22;35254;47.990;-1.608;2022-09-17T16:01:57;24.60;40.80
49379;DHT22;35254;47.990;-1.608;2022-09-17T16:10:03;24.70;41.00
49379;DHT22;35254;47.990;-1.608;2022-09-17T16:12:28;24.70;41.10
49379;DHT22;35254;47.990;-1.608;2022-09-17T16:14:56;24.70;41.30
49379;DHT22;35254;47.990;-1.608;2022-09-17T16:19:53;24.70;41.20
49379;DHT22;35254;47.990;-1.608;2022-09-17T16:22:20;24.60;41.30
49379;DHT22;35254;47.990;-1.608;2022-09-17T16:24:46;24.60;41.40
49379;DHT22;35254;47.990;-1.608;2022-09-17T16:27:19;24.60;41.30
49379;DHT22;35254;47.990;-1.608;2022-09-17T16:29:45;24.50;41.40
49379;DHT22;35254;47.990;-1.608;2022-09-17T16:32:11;24.60;41.70
49379;DHT22;35254;47.990;-1.608;2022-09-17T16:34:36;24.60;41.80
49379;DHT22;35254;47.990;-1.608;2022-09-17T16:37:02;24.70;41.80
49379;DHT22;35254;47.990;-1.608;2022-09-17T16:39:28;24.60;41.90
49379;DHT22;35254;47.990;-1.608;2022-09-17T16:41:53;24.60;42.00
49379;DHT22;35254;47.990;-1.608;2022-09-17T16:44:19;24.60;42.00
49379;DHT22;35254;47.990;-1.608;2022-09-17T16:46:46;24.70;42.10
49379;DHT22;35254;47.990;-1.608;2022-09-17T16:49:14;24.70;42.30
49379;DHT22;35254;47.990;-1.608;2022-09-17T16:51:39;24.70;42.50
49379;DHT22;35254;47.990;-1.608;2022-09-17T16:54:05;24.70;42.60
49379;DHT22;35254;47.990;-1.608;2022-09-17T16:56:31;24.70;42.80
49379;DHT22;35254;47.990;-1.608;2022-09-17T16:58:56;24.70;42.80
49379;DHT22;35254;47.990;-1.608;2022-09-17T17:01:22;24.70;42.80
49379;DHT22;35254;47.990;-1.608;2022-09-17T17:03:50;24.70;42.90
49379;DHT22;35254;47.990;-1.608;2022-09-17T17:06:20;24.70;43.10
49379;DHT22;35254;47.990;-1.608;2022-09-17T17:08:47;24.80;43.20
49379;DHT22;35254;47.990;-1.608;2022-09-17T17:11:13;24.70;43.50
49379;DHT22;35254;47.990;-1.608;2022-09-17T17:13:40;24.80;43.60
49379;DHT22;35254;47.990;-1.608;2022-09-17T17:16:11;24.80;43.70
49379;DHT22;35254;47.990;-1.608;2022-09-17T17:18:37;24.80;43.90
49379;DHT22;35254;47.990;-1.608;2022-09-17T17:21:07;24.90;44.30
49379;DHT22;35254;47.990;-1.608;2022-09-17T17:23:33;24.90;44.40
49379;DHT22;35254;47.990;-1.608;2022-09-17T17:25:59;24.90;44.20
49379;DHT22;35254;47.990;-1.608;2022-09-17T17:28:25;24.80;44.50
49379;DHT22;35254;47.990;-1.608;2022-09-17T17:30:50;24.80;44.50
49379;DHT22;35254;47.990;-1.608;2022-09-17T17:33:16;24.80;44.70
49379;DHT22;35254;47.990;-1.608;2022-09-17T17:35:42;24.80;44.80
49379;DHT22;35254;47.990;-1.608;2022-09-17T17:38:09;24.80;45.00
49379;DHT22;35254;47.990;-1.608;2022-09-17T17:40:35;24.80;45.10
49379;DHT22;35254;47.990;-1.608;2022-09-17T17:43:01;24.80;45.10
49379;DHT22;35254;47.990;-1.608;2022-09-17T17:45:27;24.80;45.30
49379;DHT22;35254;47.990;-1.608;2022-09-17T17:47:53;24.80;45.30
49379;DHT22;35254;47.990;-1.608;2022-09-17T17:50:18;24.70;45.60
49379;DHT22;35254;47.990;-1.608;2022-09-17T17:52:44;24.80;45.70
49379;DHT22;35254;47.990;-1.608;2022-09-17T17:55:13;24.80;45.80
49379;DHT22;35254;47.990;-1.608;2022-09-17T17:57:39;24.80;45.90
49379;DHT22;35254;47.990;-1.608;2022-09-17T18:00:05;24.80;45.90
49379;DHT22;35254;47.990;-1.608;2022-09-17T18:02:31;24.80;45.70
49379;DHT22;35254;47.990;-1.608;2022-09-17T18:04:57;24.80;46.00
49379;DHT22;35254;47.990;-1.608;2022-09-17T18:07:22;24.80;46.10
49379;DHT22;35254;47.990;-1.608;2022-09-17T18:09:48;24.70;46.20
49379;DHT22;35254;47.990;-1.608;2022-09-17T18:12:14;24.70;46.10
49379;DHT22;35254;47.990;-1.608;2022-09-17T18:14:39;24.70;46.20
49379;DHT22;35254;47.990;-1.608;2022-09-17T18:17:05;24.70;46.20
49379;DHT22;35254;47.990;-1.608;2022-09-17T18:19:30;24.70;46.20
49379;DHT22;35254;47.990;-1.608;2022-09-17T18:21:56;24.70;46.40
49379;DHT22;35254;47.990;-1.608;2022-09-17T18:24:22;24.60;46.50
49379;DHT22;35254;47.990;-1.608;2022-09-17T18:26:47;24.60;46.40
49379;DHT22;35254;47.990;-1.608;2022-09-17T18:29:13;24.60;46.40
49379;DHT22;35254;47.990;-1.608;2022-09-17T18:31:39;24.50;46.50
49379;DHT22;35254;47.990;-1.608;2022-09-17T18:34:11;24.50;46.50
49379;DHT22;35254;47.990;-1.608;2022-09-17T18:36:38;24.50;46.50
49379;DHT22;35254;47.990;-1.608;2022-09-17T18:39:06;24.50;46.50
49379;DHT22;35254;47.990;-1.608;2022-09-17T18:41:34;24.50;46.50
49379;DHT22;35254;47.990;-1.608;2022-09-17T18:44:02;24.50;46.60
49379;DHT22;35254;47.990;-1.608;2022-09-17T18:46:28;24.50;46.60
49379;DHT22;35254;47.990;-1.608;2022-09-17T18:48:56;24.40;46.70
49379;DHT22;35254;47.990;-1.608;2022-09-17T18:51:22;24.50;46.80
49379;DHT22;35254;47.990;-1.608;2022-09-17T18:53:49;24.50;46.90
49379;DHT22;35254;47.990;-1.608;2022-09-17T18:56:21;24.50;46.90
49379;DHT22;35254;47.990;-1.608;2022-09-17T18:58:48;24.50;47.00
49379;DHT22;35254;47.990;-1.608;2022-09-17T19:01:14;24.50;47.00
49379;DHT22;35254;47.990;-1.608;2022-09-17T19:03:41;24.50;47.10
49379;DHT22;35254;47.990;-1.608;2022-09-17T19:06:09;24.50;47.10
49379;DHT22;35254;47.990;-1.608;2022-09-17T19:08:36;24.50;47.10
49379;DHT22;35254;47.990;-1.608;2022-09-17T19:11:03;24.50;47.10
49379;DHT22;35254;47.990;-1.608;2022-09-17T19:13:55;24.40;47.20
49379;DHT22;35254;47.990;-1.608;2022-09-17T19:16:21;24.50;47.40
49379;DHT22;35254;47.990;-1.608;2022-09-17T19:18:47;24.40;47.20